KCVX

Charlevoix Municipal Airport

Charlevoix, Michigan, USA
METAR KCVX 181336Z AUTO 29012KT 10SM SCT028 OVC032 M05/M11 A3011 RMK AO2 T10491112
Observed Flight Rules
Jan-18 @ 13:36 UTC (32 minutes ago) Visual Flight Rules
Wind Visibility Clouds
290° at 12 knots 10 miles
  • Scattered at 2,800' AGL
  • Overcast at 3,200' AGL
Temperatures Readings
Current -5°C / 23°F
Dewpoint -11°C / 12°F
Humidity 63%
Altimeter 30.11" Hg
Pressure 1019.62 hPa
Elevation 204
METAR KCVX 181336Z AUTO 29012KT 10SM SCT028 OVC032 M05/M11 A3011 RMK AO2 T10491112
Observed Flight Rules
Jan-18 @ 13:36 UTC
(32 minutes ago)
VFR
Wind Visibility
290° at 12 knots 10 miles
Clouds
  • Scattered at 2,800' AGL
  • Overcast at 3,200' AGL
Temperature Dewpoint
-5°C / 23°F -11°C / 12°F
Humidity Altimeter Pressure
63% 30.11" Hg 1019.62 hPa